sensor_id;sensor_type;location;lat;lon;timestamp;P1;durP1;ratioP1;P2;durP2;ratioP2
18853;SDS011;9556;49.374;19.446;2023-07-16T00:01:54;4.40;;;3.00;;
18853;SDS011;9556;49.374;19.446;2023-07-16T00:04:21;4.13;;;2.90;;
18853;SDS011;9556;49.374;19.446;2023-07-16T00:06:49;4.90;;;3.10;;
18853;SDS011;9556;49.374;19.446;2023-07-16T00:09:16;5.38;;;3.15;;
18853;SDS011;9556;49.374;19.446;2023-07-16T00:11:43;3.88;;;2.92;;
18853;SDS011;9556;49.374;19.446;2023-07-16T00:14:10;4.93;;;3.60;;
18853;SDS011;9556;49.374;19.446;2023-07-16T00:16:38;4.47;;;3.10;;
18853;SDS011;9556;49.374;19.446;2023-07-16T00:19:06;5.05;;;3.33;;
18853;SDS011;9556;49.374;19.446;2023-07-16T00:21:33;4.20;;;3.40;;
18853;SDS011;9556;49.374;19.446;2023-07-16T00:24:02;4.90;;;2.83;;
18853;SDS011;9556;49.374;19.446;2023-07-16T00:26:30;4.40;;;3.20;;
18853;SDS011;9556;49.374;19.446;2023-07-16T00:28:57;3.47;;;2.80;;
18853;SDS011;9556;49.374;19.446;2023-07-16T00:31:24;4.13;;;3.10;;
18853;SDS011;9556;49.374;19.446;2023-07-16T00:33:51;5.03;;;3.22;;
18853;SDS011;9556;49.374;19.446;2023-07-16T00:36:19;4.47;;;3.20;;
18853;SDS011;9556;49.374;19.446;2023-07-16T00:38:47;3.58;;;3.05;;
18853;SDS011;9556;49.374;19.446;2023-07-16T00:41:15;5.30;;;3.40;;
18853;SDS011;9556;49.374;19.446;2023-07-16T00:43:42;5.05;;;3.20;;
18853;SDS011;9556;49.374;19.446;2023-07-16T00:46:09;5.10;;;3.28;;
18853;SDS011;9556;49.374;19.446;2023-07-16T00:48:37;4.35;;;3.33;;
18853;SDS011;9556;49.374;19.446;2023-07-16T00:51:04;4.97;;;3.40;;
18853;SDS011;9556;49.374;19.446;2023-07-16T00:53:33;4.00;;;3.28;;
18853;SDS011;9556;49.374;19.446;2023-07-16T00:56:00;4.80;;;3.40;;
18853;SDS011;9556;49.374;19.446;2023-07-16T00:58:27;3.97;;;3.10;;
18853;SDS011;9556;49.374;19.446;2023-07-16T01:00:55;4.90;;;3.10;;
18853;SDS011;9556;49.374;19.446;2023-07-16T01:03:22;4.20;;;3.25;;
18853;SDS011;9556;49.374;19.446;2023-07-16T01:05:50;4.13;;;3.28;;
18853;SDS011;9556;49.374;19.446;2023-07-16T01:08:22;3.80;;;3.40;;
18853;SDS011;9556;49.374;19.446;2023-07-16T01:10:53;4.97;;;3.13;;
18853;SDS011;9556;49.374;19.446;2023-07-16T01:13:21;5.00;;;3.63;;
18853;SDS011;9556;49.374;19.446;2023-07-16T01:15:48;5.07;;;3.35;;
18853;SDS011;9556;49.374;19.446;2023-07-16T01:18:15;7.47;;;3.60;;
18853;SDS011;9556;49.374;19.446;2023-07-16T01:20:42;5.25;;;3.03;;
18853;SDS011;9556;49.374;19.446;2023-07-16T01:23:16;6.10;;;3.30;;
18853;SDS011;9556;49.374;19.446;2023-07-16T01:26:11;4.10;;;3.40;;
18853;SDS011;9556;49.374;19.446;2023-07-16T01:28:53;4.20;;;3.35;;
18853;SDS011;9556;49.374;19.446;2023-07-16T01:31:23;4.53;;;3.38;;
18853;SDS011;9556;49.374;19.446;2023-07-16T01:33:51;5.28;;;3.30;;
18853;SDS011;9556;49.374;19.446;2023-07-16T01:36:18;4.97;;;3.38;;
18853;SDS011;9556;49.374;19.446;2023-07-16T01:38:46;4.78;;;3.47;;
18853;SDS011;9556;49.374;19.446;2023-07-16T01:41:13;4.35;;;3.70;;
18853;SDS011;9556;49.374;19.446;2023-07-16T01:43:41;4.10;;;3.40;;
18853;SDS011;9556;49.374;19.446;2023-07-16T01:46:08;7.07;;;3.55;;
18853;SDS011;9556;49.374;19.446;2023-07-16T01:48:37;6.05;;;3.53;;
18853;SDS011;9556;49.374;19.446;2023-07-16T01:51:04;4.85;;;3.65;;
18853;SDS011;9556;49.374;19.446;2023-07-16T01:53:31;5.03;;;3.30;;
18853;SDS011;9556;49.374;19.446;2023-07-16T01:56:00;6.40;;;3.58;;
18853;SDS011;9556;49.374;19.446;2023-07-16T01:58:27;3.60;;;3.20;;
18853;SDS011;9556;49.374;19.446;2023-07-16T02:00:55;4.53;;;3.30;;
18853;SDS011;9556;49.374;19.446;2023-07-16T02:03:22;7.80;;;3.60;;
18853;SDS011;9556;49.374;19.446;2023-07-16T02:05:50;4.53;;;3.38;;
18853;SDS011;9556;49.374;19.446;2023-07-16T02:08:18;6.97;;;3.55;;
18853;SDS011;9556;49.374;19.446;2023-07-16T02:10:46;4.78;;;3.30;;
18853;SDS011;9556;49.374;19.446;2023-07-16T02:13:14;6.78;;;3.50;;
18853;SDS011;9556;49.374;19.446;2023-07-16T02:15:41;5.15;;;3.38;;
18853;SDS011;9556;49.374;19.446;2023-07-16T02:18:09;4.47;;;3.50;;
18853;SDS011;9556;49.374;19.446;2023-07-16T02:20:36;5.95;;;3.63;;
18853;SDS011;9556;49.374;19.446;2023-07-16T02:23:05;6.13;;;3.67;;
18853;SDS011;9556;49.374;19.446;2023-07-16T02:25:32;5.80;;;3.70;;
18853;SDS011;9556;49.374;19.446;2023-07-16T02:27:59;4.68;;;3.63;;
18853;SDS011;9556;49.374;19.446;2023-07-16T02:30:27;4.38;;;3.70;;
18853;SDS011;9556;49.374;19.446;2023-07-16T02:32:54;5.95;;;3.60;;
18853;SDS011;9556;49.374;19.446;2023-07-16T02:35:21;6.43;;;3.50;;
18853;SDS011;9556;49.374;19.446;2023-07-16T02:37:48;4.15;;;3.40;;
18853;SDS011;9556;49.374;19.446;2023-07-16T02:40:17;6.15;;;3.53;;
18853;SDS011;9556;49.374;19.446;2023-07-16T02:42:44;3.97;;;3.33;;
18853;SDS011;9556;49.374;19.446;2023-07-16T02:45:11;5.53;;;3.80;;
18853;SDS011;9556;49.374;19.446;2023-07-16T02:47:38;4.50;;;3.47;;
18853;SDS011;9556;49.374;19.446;2023-07-16T02:50:06;5.82;;;3.90;;
18853;SDS011;9556;49.374;19.446;2023-07-16T02:52:33;5.13;;;3.75;;
18853;SDS011;9556;49.374;19.446;2023-07-16T02:55:00;4.03;;;3.50;;
18853;SDS011;9556;49.374;19.446;2023-07-16T02:57:29;4.53;;;3.90;;
18853;SDS011;9556;49.374;19.446;2023-07-16T02:59:56;5.50;;;3.85;;
18853;SDS011;9556;49.374;19.446;2023-07-16T03:02:23;5.28;;;3.60;;
18853;SDS011;9556;49.374;19.446;2023-07-16T03:04:50;4.90;;;3.63;;
18853;SDS011;9556;49.374;19.446;2023-07-16T03:07:18;4.82;;;3.80;;
18853;SDS011;9556;49.374;19.446;2023-07-16T03:09:45;6.80;;;4.00;;
18853;SDS011;9556;49.374;19.446;2023-07-16T03:12:12;5.97;;;4.03;;
18853;SDS011;9556;49.374;19.446;2023-07-16T03:14:41;5.50;;;3.70;;
18853;SDS011;9556;49.374;19.446;2023-07-16T03:17:08;5.95;;;4.00;;
18853;SDS011;9556;49.374;19.446;2023-07-16T03:19:35;4.75;;;3.75;;
18853;SDS011;9556;49.374;19.446;2023-07-16T03:22:02;4.30;;;3.85;;
18853;SDS011;9556;49.374;19.446;2023-07-16T03:24:30;4.65;;;3.67;;
18853;SDS011;9556;49.374;19.446;2023-07-16T03:26:57;5.55;;;3.85;;
18853;SDS011;9556;49.374;19.446;2023-07-16T03:29:24;4.53;;;3.97;;
18853;SDS011;9556;49.374;19.446;2023-07-16T03:31:53;5.63;;;3.72;;
18853;SDS011;9556;49.374;19.446;2023-07-16T03:34:20;5.25;;;3.95;;
18853;SDS011;9556;49.374;19.446;2023-07-16T03:36:49;5.53;;;4.00;;
18853;SDS011;9556;49.374;19.446;2023-07-16T03:39:16;4.55;;;3.67;;
18853;SDS011;9556;49.374;19.446;2023-07-16T03:41:43;3.90;;;3.28;;
18853;SDS011;9556;49.374;19.446;2023-07-16T03:44:10;4.80;;;3.97;;
18853;SDS011;9556;49.374;19.446;2023-07-16T03:46:37;4.50;;;3.70;;
18853;SDS011;9556;49.374;19.446;2023-07-16T03:49:07;4.97;;;3.92;;
18853;SDS011;9556;49.374;19.446;2023-07-16T03:51:35;7.63;;;3.75;;
18853;SDS011;9556;49.374;19.446;2023-07-16T03:54:02;4.63;;;3.85;;
18853;SDS011;9556;49.374;19.446;2023-07-16T03:56:29;4.65;;;3.88;;
18853;SDS011;9556;49.374;19.446;2023-07-16T03:58:56;5.55;;;3.70;;
18853;SDS011;9556;49.374;19.446;2023-07-16T04:01:23;4.75;;;3.75;;
18853;SDS011;9556;49.374;19.446;2023-07-16T04:03:50;5.95;;;3.80;;
18853;SDS011;9556;49.374;19.446;2023-07-16T04:06:19;4.30;;;3.70;;
18853;SDS011;9556;49.374;19.446;2023-07-16T04:08:46;5.75;;;3.80;;
18853;SDS011;9556;49.374;19.446;2023-07-16T04:11:13;4.97;;;3.78;;
18853;SDS011;9556;49.374;19.446;2023-07-16T04:13:40;5.70;;;4.20;;
18853;SDS011;9556;49.374;19.446;2023-07-16T04:16:07;6.32;;;3.97;;
18853;SDS011;9556;49.374;19.446;2023-07-16T04:18:34;4.50;;;3.88;;
18853;SDS011;9556;49.374;19.446;2023-07-16T04:21:02;6.10;;;4.30;;
18853;SDS011;9556;49.374;19.446;2023-07-16T04:23:30;5.93;;;4.40;;
18853;SDS011;9556;49.374;19.446;2023-07-16T04:25:57;4.40;;;4.00;;
18853;SDS011;9556;49.374;19.446;2023-07-16T04:28:24;5.97;;;4.50;;
18853;SDS011;9556;49.374;19.446;2023-07-16T04:30:52;5.68;;;4.47;;
18853;SDS011;9556;49.374;19.446;2023-07-16T04:33:19;7.70;;;4.40;;
18853;SDS011;9556;49.374;19.446;2023-07-16T04:35:46;5.32;;;4.13;;
18853;SDS011;9556;49.374;19.446;2023-07-16T04:38:13;6.00;;;4.03;;
18853;SDS011;9556;49.374;19.446;2023-07-16T04:40:42;7.35;;;4.30;;
18853;SDS011;9556;49.374;19.446;2023-07-16T04:43:09;4.40;;;4.00;;
18853;SDS011;9556;49.374;19.446;2023-07-16T04:45:36;5.72;;;4.03;;
18853;SDS011;9556;49.374;19.446;2023-07-16T04:48:05;4.97;;;4.47;;
18853;SDS011;9556;49.374;19.446;2023-07-16T04:50:32;6.15;;;4.45;;
18853;SDS011;9556;49.374;19.446;2023-07-16T04:52:59;5.47;;;4.70;;
18853;SDS011;9556;49.374;19.446;2023-07-16T04:55:26;5.53;;;4.63;;
18853;SDS011;9556;49.374;19.446;2023-07-16T04:57:55;6.22;;;4.75;;
18853;SDS011;9556;49.374;19.446;2023-07-16T05:00:22;5.97;;;4.40;;
18853;SDS011;9556;49.374;19.446;2023-07-16T05:02:49;7.80;;;4.65;;
18853;SDS011;9556;49.374;19.446;2023-07-16T05:05:17;5.45;;;4.80;;
18853;SDS011;9556;49.374;19.446;2023-07-16T05:07:44;7.28;;;4.47;;
18853;SDS011;9556;49.374;19.446;2023-07-16T05:10:11;6.28;;;4.47;;
18853;SDS011;9556;49.374;19.446;2023-07-16T05:12:38;6.35;;;4.32;;
18853;SDS011;9556;49.374;19.446;2023-07-16T05:15:07;6.28;;;4.30;;
18853;SDS011;9556;49.374;19.446;2023-07-16T05:17:35;9.07;;;4.53;;
18853;SDS011;9556;49.374;19.446;2023-07-16T05:20:02;4.90;;;4.20;;
18853;SDS011;9556;49.374;19.446;2023-07-16T05:22:29;5.55;;;4.30;;
18853;SDS011;9556;49.374;19.446;2023-07-16T05:24:57;6.18;;;4.53;;
18853;SDS011;9556;49.374;19.446;2023-07-16T05:27:24;5.47;;;4.43;;
18853;SDS011;9556;49.374;19.446;2023-07-16T05:29:51;6.30;;;4.63;;
18853;SDS011;9556;49.374;19.446;2023-07-16T05:32:20;5.28;;;4.30;;
18853;SDS011;9556;49.374;19.446;2023-07-16T05:34:47;6.50;;;4.50;;
18853;SDS011;9556;49.374;19.446;2023-07-16T05:37:14;5.57;;;4.60;;
18853;SDS011;9556;49.374;19.446;2023-07-16T05:39:41;5.57;;;4.28;;
18853;SDS011;9556;49.374;19.446;2023-07-16T05:42:08;6.95;;;4.18;;
18853;SDS011;9556;49.374;19.446;2023-07-16T05:44:35;6.18;;;4.50;;
18853;SDS011;9556;49.374;19.446;2023-07-16T05:47:03;6.00;;;4.18;;
18853;SDS011;9556;49.374;19.446;2023-07-16T05:49:31;5.28;;;4.32;;
18853;SDS011;9556;49.374;19.446;2023-07-16T05:51:58;5.45;;;3.90;;
18853;SDS011;9556;49.374;19.446;2023-07-16T05:54:26;4.65;;;3.85;;
18853;SDS011;9556;49.374;19.446;2023-07-16T05:56:53;6.07;;;4.28;;
18853;SDS011;9556;49.374;19.446;2023-07-16T05:59:20;5.45;;;4.32;;
18853;SDS011;9556;49.374;19.446;2023-07-16T06:01:47;5.18;;;4.35;;
18853;SDS011;9556;49.374;19.446;2023-07-16T06:04:14;6.13;;;4.70;;
18853;SDS011;9556;49.374;19.446;2023-07-16T06:06:43;6.40;;;4.38;;
18853;SDS011;9556;49.374;19.446;2023-07-16T06:09:10;4.82;;;4.07;;
18853;SDS011;9556;49.374;19.446;2023-07-16T06:11:37;6.20;;;4.65;;
18853;SDS011;9556;49.374;19.446;2023-07-16T06:14:04;6.20;;;5.00;;
18853;SDS011;9556;49.374;19.446;2023-07-16T06:16:31;5.15;;;4.45;;
18853;SDS011;9556;49.374;19.446;2023-07-16T06:18:58;5.18;;;4.20;;
18853;SDS011;9556;49.374;19.446;2023-07-16T06:21:25;5.90;;;4.72;;
18853;SDS011;9556;49.374;19.446;2023-07-16T06:23:54;6.05;;;4.55;;
18853;SDS011;9556;49.374;19.446;2023-07-16T06:26:21;6.93;;;5.05;;
18853;SDS011;9556;49.374;19.446;2023-07-16T06:28:48;5.65;;;4.82;;
18853;SDS011;9556;49.374;19.446;2023-07-16T06:31:16;5.70;;;4.80;;
18853;SDS011;9556;49.374;19.446;2023-07-16T06:33:43;5.50;;;4.60;;
18853;SDS011;9556;49.374;19.446;2023-07-16T06:36:11;9.88;;;5.85;;
18853;SDS011;9556;49.374;19.446;2023-07-16T06:38:38;6.88;;;5.03;;
18853;SDS011;9556;49.374;19.446;2023-07-16T06:41:07;7.65;;;5.05;;
18853;SDS011;9556;49.374;19.446;2023-07-16T06:43:34;7.93;;;5.50;;
18853;SDS011;9556;49.374;19.446;2023-07-16T06:46:01;6.40;;;5.10;;
18853;SDS011;9556;49.374;19.446;2023-07-16T06:48:29;9.88;;;5.50;;
18853;SDS011;9556;49.374;19.446;2023-07-16T06:50:56;6.57;;;5.18;;
18853;SDS011;9556;49.374;19.446;2023-07-16T06:53:23;10.45;;;5.38;;
18853;SDS011;9556;49.374;19.446;2023-07-16T06:55:50;6.00;;;4.82;;
18853;SDS011;9556;49.374;19.446;2023-07-16T06:58:19;6.10;;;4.40;;
18853;SDS011;9556;49.374;19.446;2023-07-16T07:00:46;6.65;;;4.43;;
18853;SDS011;9556;49.374;19.446;2023-07-16T07:03:13;7.10;;;4.68;;
18853;SDS011;9556;49.374;19.446;2023-07-16T07:05:40;8.80;;;4.90;;
18853;SDS011;9556;49.374;19.446;2023-07-16T07:08:08;6.28;;;4.70;;
18853;SDS011;9556;49.374;19.446;2023-07-16T07:10:35;7.97;;;4.60;;
18853;SDS011;9556;49.374;19.446;2023-07-16T07:13:04;7.18;;;4.43;;
18853;SDS011;9556;49.374;19.446;2023-07-16T07:15:33;9.30;;;4.50;;
18853;SDS011;9556;49.374;19.446;2023-07-16T07:18:00;5.55;;;4.15;;
18853;SDS011;9556;49.374;19.446;2023-07-16T07:20:27;5.35;;;4.13;;
18853;SDS011;9556;49.374;19.446;2023-07-16T07:22:54;6.88;;;4.95;;
18853;SDS011;9556;49.374;19.446;2023-07-16T07:25:21;5.55;;;4.15;;
18853;SDS011;9556;49.374;19.446;2023-07-16T07:27:49;8.07;;;4.47;;
18853;SDS011;9556;49.374;19.446;2023-07-16T07:30:16;6.93;;;4.43;;
18853;SDS011;9556;49.374;19.446;2023-07-16T07:32:44;7.05;;;4.00;;
18853;SDS011;9556;49.374;19.446;2023-07-16T07:35:12;8.48;;;4.38;;
18853;SDS011;9556;49.374;19.446;2023-07-16T07:37:39;6.82;;;4.07;;
18853;SDS011;9556;49.374;19.446;2023-07-16T07:40:06;5.85;;;4.30;;
18853;SDS011;9556;49.374;19.446;2023-07-16T07:42:34;7.03;;;5.28;;
18853;SDS011;9556;49.374;19.446;2023-07-16T07:45:01;7.35;;;4.40;;
18853;SDS011;9556;49.374;19.446;2023-07-16T07:47:28;6.38;;;4.35;;
18853;SDS011;9556;49.374;19.446;2023-07-16T07:49:57;6.75;;;4.35;;
18853;SDS011;9556;49.374;19.446;2023-07-16T07:52:24;4.65;;;3.90;;
18853;SDS011;9556;49.374;19.446;2023-07-16T07:54:51;5.20;;;4.15;;
18853;SDS011;9556;49.374;19.446;2023-07-16T07:57:19;9.32;;;4.47;;
18853;SDS011;9556;49.374;19.446;2023-07-16T07:59:46;6.25;;;4.10;;
18853;SDS011;9556;49.374;19.446;2023-07-16T08:02:16;5.57;;;4.13;;
18853;SDS011;9556;49.374;19.446;2023-07-16T08:04:46;6.35;;;4.88;;
18853;SDS011;9556;49.374;19.446;2023-07-16T08:07:14;6.28;;;4.80;;
18853;SDS011;9556;49.374;19.446;2023-07-16T08:09:42;7.93;;;4.90;;
18853;SDS011;9556;49.374;19.446;2023-07-16T08:12:09;7.05;;;4.70;;
18853;SDS011;9556;49.374;19.446;2023-07-16T08:14:37;8.40;;;4.88;;
18853;SDS011;9556;49.374;19.446;2023-07-16T08:17:04;6.03;;;4.45;;
18853;SDS011;9556;49.374;19.446;2023-07-16T08:19:31;6.88;;;4.85;;
18853;SDS011;9556;49.374;19.446;2023-07-16T08:21:58;7.15;;;4.47;;
18853;SDS011;9556;49.374;19.446;2023-07-16T08:24:27;6.45;;;4.18;;
18853;SDS011;9556;49.374;19.446;2023-07-16T08:26:54;7.85;;;4.53;;
18853;SDS011;9556;49.374;19.446;2023-07-16T08:29:21;7.82;;;5.03;;
18853;SDS011;9556;49.374;19.446;2023-07-16T08:31:48;6.70;;;4.72;;
18853;SDS011;9556;49.374;19.446;2023-07-16T08:34:15;7.45;;;4.80;;
18853;SDS011;9556;49.374;19.446;2023-07-16T08:36:42;7.22;;;4.70;;
18853;SDS011;9556;49.374;19.446;2023-07-16T08:39:10;7.00;;;4.90;;
18853;SDS011;9556;49.374;19.446;2023-07-16T08:41:38;6.55;;;4.70;;
18853;SDS011;9556;49.374;19.446;2023-07-16T08:44:05;8.00;;;4.95;;
18853;SDS011;9556;49.374;19.446;2023-07-16T08:46:33;7.55;;;4.80;;
18853;SDS011;9556;49.374;19.446;2023-07-16T08:49:00;5.90;;;4.50;;
18853;SDS011;9556;49.374;19.446;2023-07-16T08:51:28;5.82;;;4.30;;
18853;SDS011;9556;49.374;19.446;2023-07-16T08:53:55;7.72;;;4.55;;
18853;SDS011;9556;49.374;19.446;2023-07-16T08:56:22;5.57;;;4.40;;
18853;SDS011;9556;49.374;19.446;2023-07-16T08:58:52;6.55;;;4.43;;
18853;SDS011;9556;49.374;19.446;2023-07-16T09:01:21;5.53;;;4.22;;
18853;SDS011;9556;49.374;19.446;2023-07-16T09:03:49;8.35;;;4.25;;
18853;SDS011;9556;49.374;19.446;2023-07-16T09:06:16;8.68;;;4.28;;
18853;SDS011;9556;49.374;19.446;2023-07-16T09:08:43;6.13;;;4.68;;
18853;SDS011;9556;49.374;19.446;2023-07-16T09:11:10;8.43;;;4.47;;
18853;SDS011;9556;49.374;19.446;2023-07-16T09:13:43;10.57;;;5.18;;
18853;SDS011;9556;49.374;19.446;2023-07-16T09:16:12;14.30;;;5.30;;
18853;SDS011;9556;49.374;19.446;2023-07-16T09:18:41;11.18;;;5.20;;
18853;SDS011;9556;49.374;19.446;2023-07-16T09:21:09;8.85;;;5.13;;
18853;SDS011;9556;49.374;19.446;2023-07-16T09:23:36;8.18;;;4.65;;
18853;SDS011;9556;49.374;19.446;2023-07-16T09:26:04;6.68;;;4.40;;
18853;SDS011;9556;49.374;19.446;2023-07-16T09:28:31;8.32;;;4.57;;
18853;SDS011;9556;49.374;19.446;2023-07-16T09:31:03;9.55;;;4.78;;
18853;SDS011;9556;49.374;19.446;2023-07-16T09:33:31;10.20;;;6.78;;
18853;SDS011;9556;49.374;19.446;2023-07-16T09:35:59;9.88;;;6.38;;
18853;SDS011;9556;49.374;19.446;2023-07-16T09:38:27;10.35;;;5.40;;
18853;SDS011;9556;49.374;19.446;2023-07-16T09:40:55;6.22;;;4.63;;
18853;SDS011;9556;49.374;19.446;2023-07-16T09:43:23;7.00;;;4.80;;
18853;SDS011;9556;49.374;19.446;2023-07-16T09:45:50;13.02;;;5.20;;
18853;SDS011;9556;49.374;19.446;2023-07-16T09:48:17;9.02;;;4.70;;
18853;SDS011;9556;49.374;19.446;2023-07-16T09:50:49;9.25;;;4.55;;
18853;SDS011;9556;49.374;19.446;2023-07-16T09:53:18;6.68;;;3.97;;
18853;SDS011;9556;49.374;19.446;2023-07-16T09:55:46;7.82;;;4.70;;
18853;SDS011;9556;49.374;19.446;2023-07-16T09:58:14;7.05;;;4.65;;
18853;SDS011;9556;49.374;19.446;2023-07-16T10:00:44;6.40;;;4.05;;
18853;SDS011;9556;49.374;19.446;2023-07-16T10:03:13;8.90;;;4.40;;
18853;SDS011;9556;49.374;19.446;2023-07-16T10:05:41;8.13;;;4.40;;
18853;SDS011;9556;49.374;19.446;2023-07-16T10:08:16;6.78;;;4.40;;
18853;SDS011;9556;49.374;19.446;2023-07-16T10:10:44;6.15;;;4.13;;
18853;SDS011;9556;49.374;19.446;2023-07-16T10:13:13;9.10;;;4.40;;
18853;SDS011;9556;49.374;19.446;2023-07-16T10:15:50;6.90;;;4.40;;
18853;SDS011;9556;49.374;19.446;2023-07-16T10:18:22;7.00;;;4.13;;
18853;SDS011;9556;49.374;19.446;2023-07-16T10:20:49;6.95;;;4.60;;
18853;SDS011;9556;49.374;19.446;2023-07-16T10:23:20;6.13;;;4.40;;
18853;SDS011;9556;49.374;19.446;2023-07-16T10:25:59;6.35;;;4.25;;
18853;SDS011;9556;49.374;19.446;2023-07-16T10:28:30;5.90;;;4.30;;
18853;SDS011;9556;49.374;19.446;2023-07-16T10:30:57;6.50;;;4.05;;
18853;SDS011;9556;49.374;19.446;2023-07-16T10:33:25;6.03;;;4.20;;
18853;SDS011;9556;49.374;19.446;2023-07-16T10:35:52;6.28;;;4.40;;
18853;SDS011;9556;49.374;19.446;2023-07-16T10:38:20;5.75;;;4.10;;
18853;SDS011;9556;49.374;19.446;2023-07-16T10:40:47;4.57;;;4.07;;
18853;SDS011;9556;49.374;19.446;2023-07-16T10:43:15;10.02;;;4.72;;
18853;SDS011;9556;49.374;19.446;2023-07-16T10:45:42;8.70;;;4.10;;
18853;SDS011;9556;49.374;19.446;2023-07-16T10:48:12;14.63;;;4.07;;
18853;SDS011;9556;49.374;19.446;2023-07-16T10:50:40;4.72;;;4.10;;
18853;SDS011;9556;49.374;19.446;2023-07-16T10:53:07;10.57;;;5.53;;
18853;SDS011;9556;49.374;19.446;2023-07-16T10:55:35;8.07;;;4.75;;
18853;SDS011;9556;49.374;19.446;2023-07-16T10:58:03;5.93;;;4.10;;
18853;SDS011;9556;49.374;19.446;2023-07-16T11:00:31;6.25;;;4.03;;
18853;SDS011;9556;49.374;19.446;2023-07-16T11:02:58;6.45;;;4.10;;
18853;SDS011;9556;49.374;19.446;2023-07-16T11:05:25;5.45;;;3.88;;
18853;SDS011;9556;49.374;19.446;2023-07-16T11:07:52;6.10;;;3.78;;
18853;SDS011;9556;49.374;19.446;2023-07-16T11:10:19;5.55;;;3.63;;
18853;SDS011;9556;49.374;19.446;2023-07-16T11:12:51;5.13;;;3.85;;
18853;SDS011;9556;49.374;19.446;2023-07-16T11:15:18;8.20;;;3.60;;
18853;SDS011;9556;49.374;19.446;2023-07-16T11:17:56;6.70;;;3.50;;
18853;SDS011;9556;49.374;19.446;2023-07-16T11:20:23;4.70;;;3.50;;
18853;SDS011;9556;49.374;19.446;2023-07-16T11:22:51;5.53;;;3.78;;
18853;SDS011;9556;49.374;19.446;2023-07-16T11:25:18;5.82;;;3.80;;
18853;SDS011;9556;49.374;19.446;2023-07-16T11:27:47;6.72;;;3.72;;
18853;SDS011;9556;49.374;19.446;2023-07-16T11:30:15;4.97;;;3.80;;
18853;SDS011;9556;49.374;19.446;2023-07-16T11:32:43;7.68;;;4.85;;
18853;SDS011;9556;49.374;19.446;2023-07-16T11:35:15;4.15;;;3.33;;
18853;SDS011;9556;49.374;19.446;2023-07-16T11:37:43;7.65;;;3.63;;
18853;SDS011;9556;49.374;19.446;2023-07-16T11:40:11;7.40;;;3.97;;
18853;SDS011;9556;49.374;19.446;2023-07-16T11:42:38;5.13;;;3.50;;
18853;SDS011;9556;49.374;19.446;2023-07-16T11:45:16;5.22;;;3.63;;
18853;SDS011;9556;49.374;19.446;2023-07-16T11:47:43;7.07;;;3.78;;
18853;SDS011;9556;49.374;19.446;2023-07-16T11:50:10;4.40;;;3.70;;
18853;SDS011;9556;49.374;19.446;2023-07-16T11:52:38;4.78;;;3.58;;
18853;SDS011;9556;49.374;19.446;2023-07-16T11:55:05;4.85;;;3.67;;
18853;SDS011;9556;49.374;19.446;2023-07-16T11:57:33;9.98;;;4.00;;
18853;SDS011;9556;49.374;19.446;2023-07-16T12:00:00;6.57;;;4.18;;
18853;SDS011;9556;49.374;19.446;2023-07-16T12:02:29;13.50;;;4.47;;
18853;SDS011;9556;49.374;19.446;2023-07-16T12:04:57;6.80;;;3.95;;
18853;SDS011;9556;49.374;19.446;2023-07-16T12:07:30;6.38;;;4.03;;
18853;SDS011;9556;49.374;19.446;2023-07-16T12:09:58;6.28;;;4.32;;
18853;SDS011;9556;49.374;19.446;2023-07-16T12:12:25;9.07;;;4.22;;
18853;SDS011;9556;49.374;19.446;2023-07-16T12:14:52;10.60;;;4.38;;
18853;SDS011;9556;49.374;19.446;2023-07-16T12:17:20;10.93;;;4.30;;
18853;SDS011;9556;49.374;19.446;2023-07-16T12:19:49;6.40;;;4.28;;
18853;SDS011;9556;49.374;19.446;2023-07-16T12:22:17;6.85;;;3.95;;
18853;SDS011;9556;49.374;19.446;2023-07-16T12:24:44;7.57;;;4.80;;
18853;SDS011;9556;49.374;19.446;2023-07-16T12:27:13;10.45;;;5.28;;
18853;SDS011;9556;49.374;19.446;2023-07-16T12:29:40;15.60;;;5.28;;
18853;SDS011;9556;49.374;19.446;2023-07-16T12:32:08;10.85;;;4.93;;
18853;SDS011;9556;49.374;19.446;2023-07-16T12:34:36;15.75;;;5.60;;
18853;SDS011;9556;49.374;19.446;2023-07-16T12:37:05;12.50;;;5.90;;
18853;SDS011;9556;49.374;19.446;2023-07-16T12:39:32;15.85;;;5.47;;
18853;SDS011;9556;49.374;19.446;2023-07-16T12:41:59;10.80;;;5.05;;
18853;SDS011;9556;49.374;19.446;2023-07-16T12:44:26;9.60;;;5.10;;
18853;SDS011;9556;49.374;19.446;2023-07-16T12:46:54;9.90;;;5.03;;
18853;SDS011;9556;49.374;19.446;2023-07-16T12:49:21;14.13;;;5.20;;
18853;SDS011;9556;49.374;19.446;2023-07-16T12:51:48;6.45;;;4.55;;
18853;SDS011;9556;49.374;19.446;2023-07-16T12:54:16;9.13;;;5.00;;
18853;SDS011;9556;49.374;19.446;2023-07-16T12:56:44;8.27;;;4.60;;
18853;SDS011;9556;49.374;19.446;2023-07-16T12:59:11;8.63;;;4.97;;
18853;SDS011;9556;49.374;19.446;2023-07-16T13:01:38;8.23;;;4.68;;
18853;SDS011;9556;49.374;19.446;2023-07-16T13:04:05;9.50;;;4.82;;
18853;SDS011;9556;49.374;19.446;2023-07-16T13:06:32;15.65;;;4.88;;
18853;SDS011;9556;49.374;19.446;2023-07-16T13:08:59;9.63;;;4.65;;
18853;SDS011;9556;49.374;19.446;2023-07-16T13:11:28;6.22;;;4.55;;
18853;SDS011;9556;49.374;19.446;2023-07-16T13:13:55;6.63;;;4.78;;
18853;SDS011;9556;49.374;19.446;2023-07-16T13:16:22;8.52;;;4.63;;
18853;SDS011;9556;49.374;19.446;2023-07-16T13:18:49;7.65;;;4.88;;
18853;SDS011;9556;49.374;19.446;2023-07-16T13:21:17;7.95;;;4.60;;
18853;SDS011;9556;49.374;19.446;2023-07-16T13:23:44;7.80;;;5.07;;
18853;SDS011;9556;49.374;19.446;2023-07-16T13:26:11;8.00;;;4.75;;
18853;SDS011;9556;49.374;19.446;2023-07-16T13:28:40;5.65;;;4.53;;
18853;SDS011;9556;49.374;19.446;2023-07-16T13:31:07;6.38;;;4.70;;
18853;SDS011;9556;49.374;19.446;2023-07-16T13:33:34;8.80;;;4.90;;
18853;SDS011;9556;49.374;19.446;2023-07-16T13:36:01;6.97;;;4.93;;
18853;SDS011;9556;49.374;19.446;2023-07-16T13:38:29;9.68;;;4.90;;
18853;SDS011;9556;49.374;19.446;2023-07-16T13:40:56;8.40;;;5.28;;
18853;SDS011;9556;49.374;19.446;2023-07-16T13:43:23;9.70;;;4.70;;
18853;SDS011;9556;49.374;19.446;2023-07-16T13:45:52;7.90;;;5.18;;
18853;SDS011;9556;49.374;19.446;2023-07-16T13:48:19;8.32;;;5.38;;
18853;SDS011;9556;49.374;19.446;2023-07-16T13:50:46;6.75;;;5.38;;
18853;SDS011;9556;49.374;19.446;2023-07-16T13:53:14;8.15;;;6.18;;
18853;SDS011;9556;49.374;19.446;2023-07-16T13:55:41;7.63;;;6.28;;
18853;SDS011;9556;49.374;19.446;2023-07-16T13:58:09;8.55;;;5.90;;
18853;SDS011;9556;49.374;19.446;2023-07-16T14:00:37;20.08;;;8.43;;
18853;SDS011;9556;49.374;19.446;2023-07-16T14:03:05;23.08;;;9.27;;
18853;SDS011;9556;49.374;19.446;2023-07-16T14:05:32;20.65;;;9.20;;
18853;SDS011;9556;49.374;19.446;2023-07-16T14:08:03;15.52;;;8.60;;
18853;SDS011;9556;49.374;19.446;2023-07-16T14:10:31;15.07;;;7.90;;
18853;SDS011;9556;49.374;19.446;2023-07-16T14:12:58;14.85;;;8.55;;
18853;SDS011;9556;49.374;19.446;2023-07-16T14:15:25;14.32;;;7.82;;
18853;SDS011;9556;49.374;19.446;2023-07-16T14:17:52;11.18;;;7.90;;
18853;SDS011;9556;49.374;19.446;2023-07-16T14:20:21;12.38;;;8.70;;
18853;SDS011;9556;49.374;19.446;2023-07-16T14:22:48;10.85;;;7.68;;
18853;SDS011;9556;49.374;19.446;2023-07-16T14:25:15;12.55;;;8.02;;
18853;SDS011;9556;49.374;19.446;2023-07-16T14:27:43;11.60;;;7.75;;
18853;SDS011;9556;49.374;19.446;2023-07-16T14:30:10;11.00;;;7.82;;
18853;SDS011;9556;49.374;19.446;2023-07-16T14:32:37;10.95;;;7.88;;
18853;SDS011;9556;49.374;19.446;2023-07-16T14:35:05;11.63;;;8.05;;
18853;SDS011;9556;49.374;19.446;2023-07-16T14:37:33;13.43;;;8.70;;
18853;SDS011;9556;49.374;19.446;2023-07-16T14:40:01;10.45;;;7.88;;
18853;SDS011;9556;49.374;19.446;2023-07-16T14:42:30;9.70;;;7.57;;
18853;SDS011;9556;49.374;19.446;2023-07-16T14:45:04;10.13;;;7.15;;
18853;SDS011;9556;49.374;19.446;2023-07-16T14:47:32;10.85;;;7.82;;
18853;SDS011;9556;49.374;19.446;2023-07-16T14:50:00;9.63;;;6.93;;